Time;durP1;ratioP1;P1;durP2;ratioP2;P2;SDS_P1;SDS_P2;PMS_P1;PMS_P2;Temp;Humidity;BMP_temperature;BMP_pressure;BME280_temperature;BME280_humidity;BME280_pressure;Samples;Min_cycle;Max_cycle;Signal;HPM_P1;HPM_P2
2021/03/30 00:01:10;;;;;;;13.97;7.17;;;;;;;;;;4392959;32;20520;-72
2021/03/30 00:03:35;;;;;;;12.37;6.80;;;;;;;;;;4379290;32;20182;-72
2021/03/30 00:06:01;;;;;;;15.27;6.70;;;;;;;;;;4393021;32;20174;-72
2021/03/30 00:08:26;;;;;;;13.13;7.40;;;;;;;;;;4393010;32;20126;-72
2021/03/30 00:10:51;;;;;;;18.40;7.63;;;;;;;;;;4393067;32;20170;-72
2021/03/30 00:13:17;;;;;;;14.67;8.00;;;;;;;;;;4393190;32;20143;-72
2021/03/30 00:15:44;;;;;;;12.20;7.33;;;;;;;;;;4393074;32;20540;-72
2021/03/30 00:18:10;;;;;;;14.70;7.47;;;;;;;;;;4393568;32;20135;-71
2021/03/30 00:20:35;;;;;;;12.40;7.10;;;;;;;;;;4378816;32;20193;-72
2021/03/30 00:23:01;;;;;;;14.10;7.80;;;;;;;;;;4379326;32;20212;-72
2021/03/30 00:25:26;;;;;;;12.43;7.77;;;;;;;;;;4392859;32;20154;-72
2021/03/30 00:27:51;;;;;;;10.10;6.87;;;;;;;;;;4393029;32;20491;-72
2021/03/30 00:30:17;;;;;;;15.20;7.10;;;;;;;;;;4392642;32;20448;-72
2021/03/30 00:32:42;;;;;;;15.03;7.40;;;;;;;;;;4378717;32;20186;-72
2021/03/30 00:35:08;;;;;;;13.10;7.00;;;;;;;;;;4393322;32;20204;-72
2021/03/30 00:37:37;;;;;;;12.30;7.03;;;;;;;;;;4392722;32;20511;-72
2021/03/30 00:40:03;;;;;;;11.70;6.87;;;;;;;;;;4392829;32;20168;-71
2021/03/30 00:42:28;;;;;;;17.27;7.53;;;;;;;;;;4392201;32;20150;-72
2021/03/30 00:44:53;;;;;;;10.97;6.60;;;;;;;;;;4378105;32;20587;-72
2021/03/30 00:47:19;;;;;;;12.97;6.97;;;;;;;;;;4392430;32;20127;-72
2021/03/30 00:49:46;;;;;;;13.77;7.60;;;;;;;;;;4392366;32;20135;-73
2021/03/30 00:52:11;;;;;;;12.13;7.33;;;;;;;;;;4392278;32;20598;-73
2021/03/30 00:54:37;;;;;;;15.23;7.40;;;;;;;;;;4392734;32;20213;-73
2021/03/30 00:57:03;;;;;;;13.63;7.40;;;;;;;;;;4379515;32;20491;-73
2021/03/30 00:59:28;;;;;;;14.17;6.77;;;;;;;;;;4393246;32;20552;-73
2021/03/30 01:01:54;;;;;;;13.30;7.43;;;;;;;;;;4392514;32;20146;-73
2021/03/30 01:04:19;;;;;;;11.67;7.30;;;;;;;;;;4392317;32;20157;-72
2021/03/30 01:06:46;;;;;;;10.90;6.87;;;;;;;;;;4392184;32;20176;-73
2021/03/30 01:09:14;;;;;;;13.67;7.30;;;;;;;;;;4391998;32;20181;-72
2021/03/30 01:11:59;;;;;;;14.33;6.67;;;;;;;;;;4378437;32;20221;-72
2021/03/30 01:14:33;;;;;;;11.90;7.10;;;;;;;;;;4378268;32;20232;-73
2021/03/30 01:17:05;;;;;;;14.33;7.63;;;;;;;;;;4392184;32;20130;-74
2021/03/30 01:19:33;;;;;;;13.70;7.07;;;;;;;;;;4379728;32;20162;-74
2021/03/30 01:22:16;;;;;;;14.37;7.13;;;;;;;;;;4378432;32;20154;-73
2021/03/30 01:24:45;;;;;;;12.53;7.37;;;;;;;;;;4393212;32;20235;-74
2021/03/30 01:27:21;;;;;;;14.70;6.60;;;;;;;;;;4393983;32;20158;-73
2021/03/30 01:29:53;;;;;;;14.13;7.10;;;;;;;;;;4407392;32;20130;-73
2021/03/30 01:32:25;;;;;;;11.70;6.90;;;;;;;;;;4407500;32;20130;-73
2021/03/30 01:34:51;;;;;;;11.07;6.90;;;;;;;;;;4407327;32;20123;-74
2021/03/30 01:37:17;;;;;;;15.33;7.33;;;;;;;;;;4407061;32;20160;-74
2021/03/30 01:39:43;;;;;;;15.97;7.57;;;;;;;;;;4407035;32;20154;-72
2021/03/30 01:42:09;;;;;;;14.00;7.97;;;;;;;;;;4406145;32;20134;-72
2021/03/30 01:44:35;;;;;;;12.30;7.07;;;;;;;;;;4406746;32;20127;-72
2021/03/30 01:47:01;;;;;;;11.73;7.37;;;;;;;;;;4407176;32;20122;-72
2021/03/30 01:49:27;;;;;;;13.97;7.33;;;;;;;;;;4407295;32;20130;-73
2021/03/30 01:51:53;;;;;;;12.63;7.47;;;;;;;;;;4392903;32;20200;-72
2021/03/30 01:54:18;;;;;;;12.93;7.10;;;;;;;;;;4406582;32;20201;-72
2021/03/30 01:56:44;;;;;;;13.63;7.57;;;;;;;;;;4406733;32;20126;-72
2021/03/30 01:59:13;;;;;;;11.87;7.50;;;;;;;;;;4407191;32;20126;-72
2021/03/30 02:01:39;;;;;;;12.87;7.03;;;;;;;;;;4406284;32;20547;-72
2021/03/30 02:04:04;;;;;;;12.50;7.90;;;;;;;;;;4392774;32;20158;-72
2021/03/30 02:06:32;;;;;;;15.97;8.17;;;;;;;;;;4392709;32;20204;-72
2021/03/30 02:09:01;;;;;;;15.23;7.80;;;;;;;;;;4392613;32;20158;-72
2021/03/30 02:11:31;;;;;;;20.23;8.47;;;;;;;;;;4398931;32;20142;-72
2021/03/30 02:13:58;;;;;;;14.03;8.20;;;;;;;;;;4391372;32;20586;-71
2021/03/30 02:16:30;;;;;;;15.47;8.67;;;;;;;;;;4390595;32;20126;-72
2021/03/30 02:19:09;;;;;;;23.13;9.07;;;;;;;;;;4377147;32;20178;-72
2021/03/30 02:21:38;;;;;;;15.53;9.77;;;;;;;;;;4377362;32;20150;-73
2021/03/30 02:24:08;;;;;;;15.07;9.40;;;;;;;;;;4376976;32;20150;-72
2021/03/30 02:26:34;;;;;;;17.77;8.80;;;;;;;;;;4391000;32;20126;-72
2021/03/30 02:28:59;;;;;;;18.33;8.67;;;;;;;;;;4391044;32;20184;-72
2021/03/30 02:31:30;;;;;;;16.00;10.20;;;;;;;;;;4390821;32;20440;-71
2021/03/30 02:33:57;;;;;;;16.50;9.00;;;;;;;;;;4377457;32;20158;-73
2021/03/30 02:36:23;;;;;;;17.40;8.87;;;;;;;;;;4391410;32;20155;-72
2021/03/30 02:38:50;;;;;;;20.03;8.77;;;;;;;;;;4390468;32;20142;-72
2021/03/30 02:41:16;;;;;;;16.53;9.07;;;;;;;;;;4390875;32;20213;-72
2021/03/30 02:43:42;;;;;;;15.50;9.03;;;;;;;;;;4390430;32;20190;-73
2021/03/30 02:46:07;;;;;;;15.33;9.50;;;;;;;;;;4390655;32;20138;-73
2021/03/30 02:48:35;;;;;;;16.57;8.77;;;;;;;;;;4391499;32;20443;-72
2021/03/30 02:51:03;;;;;;;16.30;10.00;;;;;;;;;;4390813;32;20134;-73
2021/03/30 02:53:28;;;;;;;18.13;10.00;;;;;;;;;;4390629;32;20278;-72
2021/03/30 02:55:54;;;;;;;18.20;10.70;;;;;;;;;;4376711;32;20162;-71
2021/03/30 02:58:19;;;;;;;17.57;9.17;;;;;;;;;;4376862;32;20158;-72
2021/03/30 03:00:45;;;;;;;17.97;9.73;;;;;;;;;;4389749;32;20130;-72
2021/03/30 03:03:11;;;;;;;17.80;9.77;;;;;;;;;;4390444;32;20172;-72
2021/03/30 03:05:37;;;;;;;17.97;9.70;;;;;;;;;;4390777;32;20127;-73
2021/03/30 03:08:04;;;;;;;19.00;9.90;;;;;;;;;;4377483;32;20208;-73
2021/03/30 03:10:29;;;;;;;19.83;9.90;;;;;;;;;;4375768;32;20219;-73
2021/03/30 03:12:54;;;;;;;18.60;9.57;;;;;;;;;;4390911;32;20227;-72
2021/03/30 03:15:21;;;;;;;16.93;10.13;;;;;;;;;;4391066;32;20145;-72
2021/03/30 03:17:49;;;;;;;15.70;10.03;;;;;;;;;;4390532;32;20127;-74
2021/03/30 03:20:15;;;;;;;18.03;9.90;;;;;;;;;;4390974;32;20131;-72
2021/03/30 03:22:40;;;;;;;18.50;10.40;;;;;;;;;;4390885;32;20192;-73
2021/03/30 03:25:06;;;;;;;18.83;10.17;;;;;;;;;;4390694;32;20181;-73
2021/03/30 03:27:33;;;;;;;20.83;10.87;;;;;;;;;;4389669;32;20131;-72
2021/03/30 03:29:58;;;;;;;19.90;11.10;;;;;;;;;;4376294;32;20161;-74
2021/03/30 03:32:23;;;;;;;20.67;11.07;;;;;;;;;;4389855;32;20447;-71
2021/03/30 03:34:49;;;;;;;19.27;10.33;;;;;;;;;;4390086;32;20196;-71
2021/03/30 03:37:14;;;;;;;20.20;11.67;;;;;;;;;;4376641;32;20151;-72
2021/03/30 03:39:39;;;;;;;18.00;11.33;;;;;;;;;;4390737;32;20130;-72
2021/03/30 03:42:05;;;;;;;23.97;11.33;;;;;;;;;;4390506;32;20539;-73
2021/03/30 03:44:30;;;;;;;19.60;11.47;;;;;;;;;;4391595;32;20157;-71
2021/03/30 03:46:55;;;;;;;22.20;11.20;;;;;;;;;;4391539;32;20157;-73
2021/03/30 03:49:22;;;;;;;20.73;10.03;;;;;;;;;;4391095;32;20416;-73
2021/03/30 03:52:08;;;;;;;16.60;9.30;;;;;;;;;;4390036;32;20429;-72
2021/03/30 03:54:34;;;;;;;22.53;10.30;;;;;;;;;;4389865;32;20494;-72
2021/03/30 03:57:03;;;;;;;15.60;9.13;;;;;;;;;;4390606;32;20204;-72
2021/03/30 03:59:33;;;;;;;19.30;10.40;;;;;;;;;;4390224;32;20228;-72
2021/03/30 04:02:10;;;;;;;18.33;9.57;;;;;;;;;;4376149;32;20192;-74
2021/03/30 04:04:42;;;;;;;16.33;9.60;;;;;;;;;;4390543;32;20138;-72
2021/03/30 04:07:13;;;;;;;21.57;9.43;;;;;;;;;;4389775;32;20526;-73
2021/03/30 04:09:38;;;;;;;18.03;9.60;;;;;;;;;;4390501;32;20618;-72
2021/03/30 04:12:04;;;;;;;15.83;9.50;;;;;;;;;;4391633;32;20142;-73
2021/03/30 04:14:31;;;;;;;17.53;9.40;;;;;;;;;;4390239;32;20135;-74
2021/03/30 04:16:56;;;;;;;24.67;9.80;;;;;;;;;;4390219;32;20485;-73
2021/03/30 04:19:22;;;;;;;17.43;9.40;;;;;;;;;;4390413;32;20157;-70
2021/03/30 04:21:47;;;;;;;16.67;9.70;;;;;;;;;;4390024;32;20131;-70
2021/03/30 04:24:12;;;;;;;17.33;9.73;;;;;;;;;;4376832;32;20159;-73
2021/03/30 04:26:38;;;;;;;17.23;9.60;;;;;;;;;;4390922;32;20131;-71
2021/03/30 04:29:03;;;;;;;17.23;8.97;;;;;;;;;;4389434;32;20192;-71
2021/03/30 04:31:28;;;;;;;20.73;9.97;;;;;;;;;;4390129;32;20161;-71
2021/03/30 04:33:54;;;;;;;15.67;9.57;;;;;;;;;;4389306;32;20135;-73
2021/03/30 04:36:19;;;;;;;19.03;10.60;;;;;;;;;;4389287;32;20151;-71
2021/03/30 04:38:44;;;;;;;19.07;9.90;;;;;;;;;;4390716;32;20123;-72
2021/03/30 04:41:09;;;;;;;16.47;9.47;;;;;;;;;;4378561;32;20154;-71
2021/03/30 04:43:35;;;;;;;18.73;10.43;;;;;;;;;;4392608;32;20220;-69
2021/03/30 04:46:00;;;;;;;17.80;9.80;;;;;;;;;;4379575;32;20606;-69
2021/03/30 04:48:26;;;;;;;22.40;11.13;;;;;;;;;;4392473;32;20122;-71
2021/03/30 04:50:53;;;;;;;21.67;10.33;;;;;;;;;;4391987;32;20170;-72
2021/03/30 04:53:18;;;;;;;18.17;11.17;;;;;;;;;;4378427;32;20563;-71
2021/03/30 04:55:43;;;;;;;21.10;10.37;;;;;;;;;;4392948;32;20149;-73
2021/03/30 04:58:08;;;;;;;17.13;10.40;;;;;;;;;;4392318;32;20134;-70
2021/03/30 05:00:33;;;;;;;22.80;10.87;;;;;;;;;;4378719;32;20155;-73
2021/03/30 05:02:59;;;;;;;19.40;11.17;;;;;;;;;;4378242;32;20162;-71
2021/03/30 05:05:24;;;;;;;20.17;11.10;;;;;;;;;;4378399;32;20155;-71
2021/03/30 05:07:49;;;;;;;21.40;11.53;;;;;;;;;;4378032;32;20158;-73
2021/03/30 05:10:15;;;;;;;21.60;11.80;;;;;;;;;;4392058;32;20405;-72
2021/03/30 05:12:40;;;;;;;23.30;10.73;;;;;;;;;;4392032;32;20231;-71
2021/03/30 05:15:07;;;;;;;22.07;10.93;;;;;;;;;;4392361;32;20214;-72
2021/03/30 05:17:33;;;;;;;24.00;11.20;;;;;;;;;;4391835;32;20123;-72
2021/03/30 05:19:58;;;;;;;20.43;11.80;;;;;;;;;;4392150;32;20510;-73
2021/03/30 05:22:23;;;;;;;18.60;10.67;;;;;;;;;;4378749;32;20162;-70
2021/03/30 05:24:49;;;;;;;25.27;11.97;;;;;;;;;;4391615;32;20477;-71
2021/03/30 05:27:14;;;;;;;22.97;11.80;;;;;;;;;;4377784;32;20159;-70
2021/03/30 05:29:45;;;;;;;22.13;11.47;;;;;;;;;;4378056;32;20248;-70
2021/03/30 05:32:11;;;;;;;21.13;11.83;;;;;;;;;;4391929;32;20536;-71
2021/03/30 05:34:37;;;;;;;19.97;11.63;;;;;;;;;;4391589;32;20130;-73
2021/03/30 05:37:03;;;;;;;19.30;11.73;;;;;;;;;;4379313;32;20201;-68
2021/03/30 05:39:28;;;;;;;20.30;12.93;;;;;;;;;;4391244;32;20142;-70
2021/03/30 05:41:53;;;;;;;27.03;13.30;;;;;;;;;;4377089;32;20664;-73
2021/03/30 05:44:19;;;;;;;21.23;12.10;;;;;;;;;;4390604;32;20150;-70
2021/03/30 05:46:47;;;;;;;23.70;12.10;;;;;;;;;;4391204;32;20475;-70
2021/03/30 05:49:12;;;;;;;22.13;12.37;;;;;;;;;;4377358;32;20501;-70
2021/03/30 05:51:38;;;;;;;24.07;11.67;;;;;;;;;;4391194;32;20241;-71
2021/03/30 05:54:06;;;;;;;20.30;10.97;;;;;;;;;;4377846;32;20216;-71
2021/03/30 05:56:31;;;;;;;22.50;11.40;;;;;;;;;;4391571;32;20570;-72
2021/03/30 05:58:57;;;;;;;22.33;11.60;;;;;;;;;;4391636;32;20233;-71
2021/03/30 06:01:23;;;;;;;21.23;12.47;;;;;;;;;;4391834;32;20166;-70
2021/03/30 06:03:51;;;;;;;21.70;12.73;;;;;;;;;;4391008;32;20188;-72
2021/03/30 06:06:17;;;;;;;26.07;11.47;;;;;;;;;;4392287;32;20134;-73
2021/03/30 06:08:42;;;;;;;23.63;12.07;;;;;;;;;;4378515;32;20162;-71
2021/03/30 06:11:10;;;;;;;22.00;12.17;;;;;;;;;;4377067;32;20507;-72
2021/03/30 06:13:48;;;;;;;24.93;12.63;;;;;;;;;;4390905;32;20192;-69
2021/03/30 06:16:34;;;;;;;27.40;14.03;;;;;;;;;;4397682;32;20173;-71
2021/03/30 06:19:00;;;;;;;24.37;13.27;;;;;;;;;;4405745;32;20146;-70
2021/03/30 06:21:25;;;;;;;20.03;11.90;;;;;;;;;;4405659;32;20456;-68
2021/03/30 06:23:58;;;;;;;23.33;11.83;;;;;;;;;;4405700;32;20153;-70
2021/03/30 06:26:24;;;;;;;21.43;12.00;;;;;;;;;;4405955;32;20147;-71
2021/03/30 06:28:49;;;;;;;21.03;12.40;;;;;;;;;;4406404;32;20539;-69
2021/03/30 06:31:15;;;;;;;22.70;11.67;;;;;;;;;;4405458;32;20141;-72
2021/03/30 06:33:44;;;;;;;30.43;14.07;;;;;;;;;;4405415;32;20131;-71
2021/03/30 06:36:10;;;;;;;20.40;12.17;;;;;;;;;;4390872;32;20532;-70
2021/03/30 06:38:48;;;;;;;23.77;12.40;;;;;;;;;;4390049;32;20150;-72
2021/03/30 06:41:37;;;;;;;18.67;10.60;;;;;;;;;;4391821;32;20592;-71
2021/03/30 06:47:07;;;;;;;24.57;11.60;;;;;;;;;;4391050;32;20126;-71
2021/03/30 06:49:33;;;;;;;23.23;11.33;;;;;;;;;;4390358;32;20189;-71
2021/03/30 06:51:58;;;;;;;19.97;11.83;;;;;;;;;;4390353;32;20138;-71
2021/03/30 06:54:24;;;;;;;21.87;11.80;;;;;;;;;;4390536;32;20173;-68
2021/03/30 06:56:51;;;;;;;17.30;10.90;;;;;;;;;;4392046;32;20214;-72
2021/03/30 06:59:16;;;;;;;27.07;12.30;;;;;;;;;;4390203;32;20169;-71
2021/03/30 07:01:42;;;;;;;19.87;11.57;;;;;;;;;;4376373;32;20202;-69
2021/03/30 07:04:07;;;;;;;24.83;13.03;;;;;;;;;;4390251;32;20157;-76
2021/03/30 07:06:37;;;;;;;21.20;12.77;;;;;;;;;;4400349;32;20210;-70
2021/03/30 07:09:10;;;;;;;21.07;12.83;;;;;;;;;;4346384;32;20237;-70
2021/03/30 07:11:39;;;;;;;26.63;13.73;;;;;;;;;;4386100;32;20193;-70
2021/03/30 07:14:04;;;;;;;25.70;13.43;;;;;;;;;;4391780;32;20226;-68
2021/03/30 07:16:31;;;;;;;25.17;13.50;;;;;;;;;;4390234;32;20130;-71
2021/03/30 07:19:01;;;;;;;26.12;14.20;;;;;;;;;;4405080;32;20478;-71
2021/03/30 07:21:29;;;;;;;23.40;13.90;;;;;;;;;;4403306;32;20207;-67
2021/03/30 07:24:00;;;;;;;26.23;13.87;;;;;;;;;;4401898;32;20203;-69
2021/03/30 07:26:36;;;;;;;26.83;14.23;;;;;;;;;;4404229;32;20142;-70
2021/03/30 07:29:01;;;;;;;26.73;14.77;;;;;;;;;;4402207;32;20146;-71
2021/03/30 07:31:45;;;;;;;30.27;15.95;;;;;;;;;;4389561;32;20193;-70
2021/03/30 07:34:15;;;;;;;30.40;15.10;;;;;;;;;;4403749;32;20135;-72
2021/03/30 07:37:01;;;;;;;27.25;15.43;;;;;;;;;;4404468;32;20150;-71
2021/03/30 07:39:28;;;;;;;29.02;15.55;;;;;;;;;;4390005;32;20618;-71
2021/03/30 07:41:54;;;;;;;33.77;17.43;;;;;;;;;;4400083;32;20141;-71
2021/03/30 07:44:19;;;;;;;29.17;15.68;;;;;;;;;;4391192;32;20570;-71
2021/03/30 07:46:45;;;;;;;27.80;16.33;;;;;;;;;;4380940;32;20223;-65
2021/03/30 07:49:11;;;;;;;26.95;17.08;;;;;;;;;;4389326;32;20295;-69
2021/03/30 07:51:39;;;;;;;31.37;16.75;;;;;;;;;;4403500;32;20154;-69
2021/03/30 07:54:18;;;;;;;32.92;16.42;;;;;;;;;;4403919;32;20138;-67
2021/03/30 07:56:51;;;;;;;27.60;17.20;;;;;;;;;;4390399;32;20154;-71
2021/03/30 07:59:35;;;;;;;36.38;18.70;;;;;;;;;;4404511;32;20134;-70
2021/03/30 08:02:01;;;;;;;35.08;18.90;;;;;;;;;;4404001;32;20177;-71
2021/03/30 08:04:27;;;;;;;33.05;18.50;;;;;;;;;;4391968;32;20138;-68
2021/03/30 08:06:53;;;;;;;40.42;18.75;;;;;;;;;;4389418;32;20139;-69
2021/03/30 08:09:19;;;;;;;35.00;19.40;;;;;;;;;;4391017;32;20196;-71
2021/03/30 08:11:52;;;;;;;44.30;21.75;;;;;;;;;;4404914;32;20150;-69
2021/03/30 08:14:21;;;;;;;38.65;19.98;;;;;;;;;;4389557;32;20204;-68
2021/03/30 08:16:48;;;;;;;40.83;19.48;;;;;;;;;;4400391;32;20193;-68
2021/03/30 08:19:15;;;;;;;36.80;18.95;;;;;;;;;;4407349;32;20130;-70
2021/03/30 08:21:57;;;;;;;33.63;19.35;;;;;;;;;;4407227;32;20311;-71
2021/03/30 08:24:23;;;;;;;33.75;18.73;;;;;;;;;;4393337;32;20240;-72
2021/03/30 08:26:48;;;;;;;37.60;19.08;;;;;;;;;;4406806;32;20127;-71
2021/03/30 08:29:34;;;;;;;37.67;19.50;;;;;;;;;;4392637;32;20660;-70
2021/03/30 08:32:02;;;;;;;40.47;18.37;;;;;;;;;;4407150;32;20161;-71
2021/03/30 08:34:37;;;;;;;30.40;17.75;;;;;;;;;;4407725;32;20149;-72
2021/03/30 08:37:10;;;;;;;28.60;16.83;;;;;;;;;;4407724;32;20154;-72
2021/03/30 08:39:36;;;;;;;34.42;17.35;;;;;;;;;;4407417;32;20138;-72
2021/03/30 08:42:04;;;;;;;31.50;15.88;;;;;;;;;;4407004;32;20207;-71
2021/03/30 08:44:36;;;;;;;31.55;17.10;;;;;;;;;;4407174;32;20579;-72
2021/03/30 08:47:02;;;;;;;31.45;16.60;;;;;;;;;;4393326;32;20731;-73
2021/03/30 08:49:37;;;;;;;32.97;17.45;;;;;;;;;;4393868;32;20150;-73
2021/03/30 08:52:10;;;;;;;28.77;16.80;;;;;;;;;;4407021;32;20223;-68
2021/03/30 08:54:37;;;;;;;32.63;18.40;;;;;;;;;;4406703;32;20139;-72
2021/03/30 08:57:07;;;;;;;32.42;16.45;;;;;;;;;;4407090;32;20578;-72
2021/03/30 08:59:32;;;;;;;28.75;18.00;;;;;;;;;;4407201;32;20220;-72
2021/03/30 09:01:58;;;;;;;36.28;17.60;;;;;;;;;;4407224;32;20156;-72
2021/03/30 09:04:25;;;;;;;26.33;16.20;;;;;;;;;;4393049;32;20171;-73
2021/03/30 09:06:53;;;;;;;31.17;17.00;;;;;;;;;;4392981;32;20166;-73
2021/03/30 09:09:20;;;;;;;26.95;16.15;;;;;;;;;;4406938;32;20179;-73
2021/03/30 09:11:45;;;;;;;28.60;17.00;;;;;;;;;;4392637;32;20176;-70
2021/03/30 09:14:15;;;;;;;34.72;17.95;;;;;;;;;;4392883;32;20158;-73
2021/03/30 09:16:40;;;;;;;36.50;18.00;;;;;;;;;;4406415;32;20130;-70
2021/03/30 09:19:12;;;;;;;30.62;17.58;;;;;;;;;;4393055;32;20184;-72
2021/03/30 09:21:41;;;;;;;33.25;17.20;;;;;;;;;;4382602;32;20175;-72
2021/03/30 09:24:13;;;;;;;35.95;17.35;;;;;;;;;;4391722;32;20181;-72
2021/03/30 09:26:41;;;;;;;32.75;18.75;;;;;;;;;;4391484;32;20482;-73
2021/03/30 09:29:07;;;;;;;33.95;17.98;;;;;;;;;;4402318;32;20138;-74
2021/03/30 09:31:33;;;;;;;33.45;18.05;;;;;;;;;;4406820;32;20205;-71
2021/03/30 09:34:00;;;;;;;31.87;18.67;;;;;;;;;;4406461;32;20157;-70
2021/03/30 09:36:28;;;;;;;31.08;17.87;;;;;;;;;;4406701;32;20157;-73
2021/03/30 09:38:56;;;;;;;32.08;16.83;;;;;;;;;;4406304;32;20547;-71
2021/03/30 09:41:34;;;;;;;30.88;16.85;;;;;;;;;;4406931;32;20181;-72
2021/03/30 09:44:01;;;;;;;29.50;16.60;;;;;;;;;;4406486;32;20192;-72
2021/03/30 09:46:26;;;;;;;30.90;17.73;;;;;;;;;;4406535;32;20134;-72
2021/03/30 09:48:52;;;;;;;28.95;16.62;;;;;;;;;;4405944;32;20754;-71
2021/03/30 09:51:17;;;;;;;30.00;17.83;;;;;;;;;;4406017;32;20134;-74
2021/03/30 09:53:42;;;;;;;32.28;17.27;;;;;;;;;;4406447;32;20579;-73
2021/03/30 09:56:17;;;;;;;27.08;15.18;;;;;;;;;;4406414;32;20547;-73
2021/03/30 09:58:43;;;;;;;27.48;15.32;;;;;;;;;;4406241;32;20174;-73
2021/03/30 10:01:08;;;;;;;29.00;16.15;;;;;;;;;;4406310;32;20134;-72
2021/03/30 10:03:34;;;;;;;28.30;15.23;;;;;;;;;;4406342;32;20122;-72
2021/03/30 10:05:59;;;;;;;27.65;14.52;;;;;;;;;;4405845;32;20224;-71
2021/03/30 10:08:30;;;;;;;32.53;15.90;;;;;;;;;;4406032;32;20123;-73
2021/03/30 10:10:56;;;;;;;31.70;15.82;;;;;;;;;;4406486;32;20134;-74
2021/03/30 10:13:26;;;;;;;31.02;14.48;;;;;;;;;;4392129;32;20188;-73
2021/03/30 10:15:52;;;;;;;27.55;15.13;;;;;;;;;;4391983;32;20224;-72
2021/03/30 10:18:17;;;;;;;32.72;16.67;;;;;;;;;;4406750;32;20153;-72
2021/03/30 10:20:46;;;;;;;28.25;16.77;;;;;;;;;;4405711;32;20142;-71
2021/03/30 10:23:18;;;;;;;32.20;17.10;;;;;;;;;;4405453;32;20279;-72
2021/03/30 10:25:44;;;;;;;27.70;14.60;;;;;;;;;;4404336;32;20138;-70
2021/03/30 10:28:09;;;;;;;30.45;15.85;;;;;;;;;;4390304;32;20165;-68
2021/03/30 10:30:47;;;;;;;27.75;14.38;;;;;;;;;;4389047;32;20648;-71
2021/03/30 10:33:19;;;;;;;28.92;14.43;;;;;;;;;;4391198;32;20161;-71
2021/03/30 10:35:44;;;;;;;25.15;14.87;;;;;;;;;;4390070;32;20172;-70
2021/03/30 10:38:10;;;;;;;25.95;12.82;;;;;;;;;;4389584;32;20556;-72
2021/03/30 10:40:39;;;;;;;23.35;12.73;;;;;;;;;;4389280;32;20185;-72
2021/03/30 10:43:24;;;;;;;23.62;11.25;;;;;;;;;;4390727;32;20154;-72
2021/03/30 10:45:50;;;;;;;25.10;13.38;;;;;;;;;;4388635;32;20560;-70
2021/03/30 10:48:19;;;;;;;27.45;15.23;;;;;;;;;;4389995;32;20135;-70
2021/03/30 10:50:45;;;;;;;26.65;14.18;;;;;;;;;;4388912;32;20193;-71
2021/03/30 10:53:11;;;;;;;29.12;15.45;;;;;;;;;;4389773;32;20479;-72
2021/03/30 10:55:36;;;;;;;31.87;16.42;;;;;;;;;;4389441;32;20127;-72
2021/03/30 10:58:07;;;;;;;33.13;17.12;;;;;;;;;;4388992;32;20193;-74
2021/03/30 11:00:35;;;;;;;30.30;16.95;;;;;;;;;;4390585;32;20185;-73
2021/03/30 11:03:00;;;;;;;28.52;16.02;;;;;;;;;;4386776;32;20166;-74
2021/03/30 11:05:28;;;;;;;28.50;15.55;;;;;;;;;;4382415;32;20146;-73
2021/03/30 11:07:54;;;;;;;30.55;15.57;;;;;;;;;;4395203;32;20139;-73
2021/03/30 11:10:21;;;;;;;30.20;15.90;;;;;;;;;;4403161;32;20138;-72
2021/03/30 11:12:49;;;;;;;31.05;15.55;;;;;;;;;;4404731;32;20490;-72
2021/03/30 11:15:15;;;;;;;28.85;15.85;;;;;;;;;;4404609;32;20151;-69
2021/03/30 11:17:43;;;;;;;36.03;19.15;;;;;;;;;;4389677;32;20563;-72
2021/03/30 11:20:10;;;;;;;28.77;17.00;;;;;;;;;;4388884;32;20230;-72
2021/03/30 11:22:35;;;;;;;35.20;17.12;;;;;;;;;;4389857;32;20606;-73
2021/03/30 11:25:02;;;;;;;31.83;17.55;;;;;;;;;;4389662;32;20184;-73
2021/03/30 11:27:30;;;;;;;31.70;18.40;;;;;;;;;;4390032;32;20233;-73
2021/03/30 11:30:11;;;;;;;28.73;16.50;;;;;;;;;;4390404;32;20195;-73
2021/03/30 11:32:41;;;;;;;29.67;16.17;;;;;;;;;;4391250;32;20161;-73
2021/03/30 11:35:16;;;;;;;29.12;16.35;;;;;;;;;;4404831;32;20188;-73
2021/03/30 11:37:50;;;;;;;34.20;18.90;;;;;;;;;;4404578;32;20183;-73
2021/03/30 11:40:15;;;;;;;25.70;14.63;;;;;;;;;;4404200;32;20138;-72
2021/03/30 11:42:43;;;;;;;29.95;16.65;;;;;;;;;;4390515;32;20578;-72
2021/03/30 11:45:12;;;;;;;29.30;15.75;;;;;;;;;;4404580;32;20169;-73
2021/03/30 11:47:37;;;;;;;30.05;17.35;;;;;;;;;;4391840;32;20166;-73
2021/03/30 11:50:06;;;;;;;26.35;14.15;;;;;;;;;;4407628;32;20203;-72
2021/03/30 11:52:31;;;;;;;23.17;12.98;;;;;;;;;;4408241;32;20153;-72
2021/03/30 11:54:56;;;;;;;24.85;15.02;;;;;;;;;;4405425;32;20193;-70
2021/03/30 11:57:22;;;;;;;24.65;14.25;;;;;;;;;;4406264;32;20204;-70
2021/03/30 11:59:47;;;;;;;22.20;13.40;;;;;;;;;;4401794;32;20181;-72
2021/03/30 12:02:12;;;;;;;24.15;13.43;;;;;;;;;;4391832;32;20201;-72
2021/03/30 12:04:38;;;;;;;26.92;14.40;;;;;;;;;;4393000;32;20147;-73
2021/03/30 12:07:04;;;;;;;27.48;14.73;;;;;;;;;;4392999;32;20188;-71
2021/03/30 12:09:29;;;;;;;23.20;14.02;;;;;;;;;;4398106;32;20177;-73
2021/03/30 12:11:54;;;;;;;27.00;13.98;;;;;;;;;;4393300;32;20185;-73
2021/03/30 12:14:20;;;;;;;25.10;14.55;;;;;;;;;;4406613;32;20586;-72
2021/03/30 12:16:47;;;;;;;27.62;13.88;;;;;;;;;;4404110;32;20609;-72
2021/03/30 12:19:13;;;;;;;28.70;15.00;;;;;;;;;;4407187;32;20709;-72
2021/03/30 12:21:38;;;;;;;23.90;13.30;;;;;;;;;;4393669;32;20170;-69
2021/03/30 12:24:03;;;;;;;23.62;13.88;;;;;;;;;;4407596;32;20253;-70
2021/03/30 12:26:28;;;;;;;22.65;13.30;;;;;;;;;;4407397;32;20575;-73
2021/03/30 12:28:54;;;;;;;26.10;14.98;;;;;;;;;;4411784;32;20168;-72
2021/03/30 12:31:19;;;;;;;25.95;13.98;;;;;;;;;;4407183;32;20184;-71
2021/03/30 12:33:44;;;;;;;23.70;13.88;;;;;;;;;;4407107;32;20159;-71
2021/03/30 12:36:10;;;;;;;22.55;14.10;;;;;;;;;;4407272;32;20150;-73
2021/03/30 12:38:35;;;;;;;25.62;14.70;;;;;;;;;;4394480;32;20583;-73
2021/03/30 12:41:00;;;;;;;27.60;14.95;;;;;;;;;;4407143;32;20131;-72
2021/03/30 12:43:25;;;;;;;27.57;15.23;;;;;;;;;;4392817;32;20174;-66
2021/03/30 12:45:59;;;;;;;27.65;14.80;;;;;;;;;;4406848;32;20276;-72
2021/03/30 12:48:25;;;;;;;25.17;14.80;;;;;;;;;;4407293;32;20143;-68
2021/03/30 12:50:50;;;;;;;26.92;14.77;;;;;;;;;;4407821;32;20161;-73
2021/03/30 12:53:15;;;;;;;23.23;14.13;;;;;;;;;;4406848;32;20157;-72
2021/03/30 12:55:40;;;;;;;23.60;13.83;;;;;;;;;;4406911;32;20178;-73
2021/03/30 12:58:05;;;;;;;24.80;13.65;;;;;;;;;;4390587;32;20266;-70
2021/03/30 13:00:31;;;;;;;23.50;13.88;;;;;;;;;;4400500;32;20281;-73
2021/03/30 13:02:56;;;;;;;23.48;13.45;;;;;;;;;;4403287;32;20150;-74
2021/03/30 13:05:21;;;;;;;24.52;14.50;;;;;;;;;;4406531;32;20718;-71
2021/03/30 13:07:47;;;;;;;25.20;13.80;;;;;;;;;;4407145;32;20154;-70
2021/03/30 13:10:12;;;;;;;24.67;14.20;;;;;;;;;;4405491;32;20178;-73
2021/03/30 13:12:37;;;;;;;25.65;14.40;;;;;;;;;;4404751;32;20158;-70
2021/03/30 13:15:03;;;;;;;24.92;13.20;;;;;;;;;;4401924;32;20150;-73
2021/03/30 13:17:29;;;;;;;24.87;14.82;;;;;;;;;;4392457;32;20166;-74
2021/03/30 13:19:54;;;;;;;28.23;15.20;;;;;;;;;;4391728;32;20284;-72
2021/03/30 13:22:22;;;;;;;31.77;17.37;;;;;;;;;;4405538;32;20257;-72
2021/03/30 13:24:48;;;;;;;24.48;14.00;;;;;;;;;;4390953;32;20162;-74
2021/03/30 13:27:16;;;;;;;31.23;16.08;;;;;;;;;;4397063;32;20614;-72
2021/03/30 13:29:42;;;;;;;29.52;15.68;;;;;;;;;;4388479;32;20230;-70
2021/03/30 13:32:17;;;;;;;29.48;15.18;;;;;;;;;;4405293;32;20181;-69
2021/03/30 13:34:44;;;;;;;30.92;16.67;;;;;;;;;;4404801;32;20212;-72
2021/03/30 13:37:09;;;;;;;31.27;17.25;;;;;;;;;;4391548;32;20637;-72
2021/03/30 13:39:35;;;;;;;33.55;17.77;;;;;;;;;;4390935;32;20158;-73
2021/03/30 13:42:00;;;;;;;29.85;15.63;;;;;;;;;;4405362;32;20146;-73
2021/03/30 13:44:25;;;;;;;27.62;16.15;;;;;;;;;;4391604;32;20204;-72
2021/03/30 13:46:51;;;;;;;28.02;15.73;;;;;;;;;;4391010;32;20261;-72
2021/03/30 13:49:17;;;;;;;31.08;16.80;;;;;;;;;;4405288;32;20142;-74
2021/03/30 13:51:45;;;;;;;28.35;16.77;;;;;;;;;;4391949;32;20177;-70
2021/03/30 13:54:11;;;;;;;26.00;15.05;;;;;;;;;;4405718;32;20155;-70
2021/03/30 13:56:36;;;;;;;29.35;17.55;;;;;;;;;;4392165;32;20217;-73
2021/03/30 13:59:02;;;;;;;26.90;15.07;;;;;;;;;;4405086;32;20173;-69
2021/03/30 14:01:27;;;;;;;28.90;15.38;;;;;;;;;;4391495;32;20251;-72
2021/03/30 14:03:52;;;;;;;29.30;14.65;;;;;;;;;;4405336;32;20192;-72
2021/03/30 14:06:18;;;;;;;23.40;13.20;;;;;;;;;;4404603;32;20139;-72
2021/03/30 14:08:43;;;;;;;30.15;14.25;;;;;;;;;;4406118;32;20158;-74
2021/03/30 14:11:08;;;;;;;26.93;14.00;;;;;;;;;;4404238;32;20142;-72
2021/03/30 14:13:46;;;;;;;27.30;14.87;;;;;;;;;;4404851;32;20678;-73
2021/03/30 14:16:16;;;;;;;23.95;13.93;;;;;;;;;;4404678;32;20268;-71
2021/03/30 14:18:55;;;;;;;24.02;13.43;;;;;;;;;;4404379;32;20189;-71
2021/03/30 14:21:47;;;;;;;25.90;14.25;;;;;;;;;;4404962;32;20212;-72
2021/03/30 14:24:06;;;;;;;25.27;14.13;;;;;;;;;;4404385;32;20651;-72
2021/03/30 14:26:31;;;;;;;25.48;13.93;;;;;;;;;;4385186;32;20235;-72